sensor_id;sensor_type;location;lat;lon;timestamp;P1;durP1;ratioP1;P2;durP2;ratioP2
39050;SDS011;24805;55.852;37.644;2024-01-07T00:00:46;11.32;;;3.13;;
39050;SDS011;24805;55.852;37.644;2024-01-07T00:05:49;6.75;;;3.75;;
39050;SDS011;24805;55.852;37.644;2024-01-07T00:10:51;11.57;;;4.07;;
39050;SDS011;24805;55.852;37.644;2024-01-07T00:15:55;6.65;;;2.92;;
39050;SDS011;24805;55.852;37.644;2024-01-07T00:20:58;7.28;;;2.83;;
39050;SDS011;24805;55.852;37.644;2024-01-07T00:26:00;10.93;;;4.00;;
39050;SDS011;24805;55.852;37.644;2024-01-07T00:31:05;10.05;;;4.03;;
39050;SDS011;24805;55.852;37.644;2024-01-07T00:36:11;8.20;;;4.43;;
39050;SDS011;24805;55.852;37.644;2024-01-07T00:41:13;9.48;;;3.10;;
39050;SDS011;24805;55.852;37.644;2024-01-07T00:46:15;10.60;;;3.60;;
39050;SDS011;24805;55.852;37.644;2024-01-07T00:51:18;10.85;;;3.28;;
39050;SDS011;24805;55.852;37.644;2024-01-07T00:56:20;7.68;;;3.03;;
39050;SDS011;24805;55.852;37.644;2024-01-07T01:01:22;12.07;;;3.28;;
39050;SDS011;24805;55.852;37.644;2024-01-07T01:06:25;10.65;;;3.22;;
39050;SDS011;24805;55.852;37.644;2024-01-07T01:11:28;10.27;;;3.10;;
39050;SDS011;24805;55.852;37.644;2024-01-07T01:16:30;7.30;;;2.15;;
39050;SDS011;24805;55.852;37.644;2024-01-07T01:21:32;6.45;;;2.63;;
39050;SDS011;24805;55.852;37.644;2024-01-07T01:26:34;8.48;;;3.40;;
39050;SDS011;24805;55.852;37.644;2024-01-07T01:31:37;8.93;;;2.90;;
39050;SDS011;24805;55.852;37.644;2024-01-07T01:36:39;9.77;;;2.72;;
39050;SDS011;24805;55.852;37.644;2024-01-07T01:41:42;11.35;;;3.05;;
39050;SDS011;24805;55.852;37.644;2024-01-07T01:46:44;6.93;;;3.17;;
39050;SDS011;24805;55.852;37.644;2024-01-07T01:51:47;6.60;;;2.78;;
39050;SDS011;24805;55.852;37.644;2024-01-07T01:56:52;8.48;;;2.15;;
39050;SDS011;24805;55.852;37.644;2024-01-07T02:01:54;14.38;;;3.72;;
39050;SDS011;24805;55.852;37.644;2024-01-07T02:06:57;6.63;;;1.88;;
39050;SDS011;24805;55.852;37.644;2024-01-07T02:12:00;4.50;;;2.80;;
39050;SDS011;24805;55.852;37.644;2024-01-07T02:17:06;7.68;;;2.60;;
39050;SDS011;24805;55.852;37.644;2024-01-07T02:22:09;6.53;;;2.33;;
39050;SDS011;24805;55.852;37.644;2024-01-07T02:27:12;8.00;;;3.38;;
39050;SDS011;24805;55.852;37.644;2024-01-07T02:32:14;8.07;;;3.15;;
39050;SDS011;24805;55.852;37.644;2024-01-07T02:37:17;7.00;;;2.55;;
39050;SDS011;24805;55.852;37.644;2024-01-07T02:42:19;6.13;;;2.50;;
39050;SDS011;24805;55.852;37.644;2024-01-07T02:47:21;8.90;;;3.00;;
39050;SDS011;24805;55.852;37.644;2024-01-07T02:52:24;7.03;;;2.85;;
39050;SDS011;24805;55.852;37.644;2024-01-07T02:57:26;6.57;;;2.28;;
39050;SDS011;24805;55.852;37.644;2024-01-07T03:02:28;8.77;;;2.75;;
39050;SDS011;24805;55.852;37.644;2024-01-07T03:07:30;4.85;;;2.13;;
39050;SDS011;24805;55.852;37.644;2024-01-07T03:12:33;5.80;;;2.15;;
39050;SDS011;24805;55.852;37.644;2024-01-07T03:17:35;7.10;;;3.40;;
39050;SDS011;24805;55.852;37.644;2024-01-07T03:22:38;8.57;;;2.67;;
39050;SDS011;24805;55.852;37.644;2024-01-07T03:27:40;4.95;;;2.13;;
39050;SDS011;24805;55.852;37.644;2024-01-07T03:32:42;3.15;;;1.65;;
39050;SDS011;24805;55.852;37.644;2024-01-07T03:37:45;6.35;;;2.13;;
39050;SDS011;24805;55.852;37.644;2024-01-07T03:42:47;6.22;;;2.72;;
39050;SDS011;24805;55.852;37.644;2024-01-07T03:47:49;8.85;;;2.42;;
39050;SDS011;24805;55.852;37.644;2024-01-07T03:52:52;5.50;;;2.53;;
39050;SDS011;24805;55.852;37.644;2024-01-07T03:57:54;4.70;;;2.40;;
39050;SDS011;24805;55.852;37.644;2024-01-07T04:02:57;6.97;;;2.35;;
39050;SDS011;24805;55.852;37.644;2024-01-07T04:08:00;8.50;;;2.85;;
39050;SDS011;24805;55.852;37.644;2024-01-07T04:13:04;4.93;;;1.45;;
39050;SDS011;24805;55.852;37.644;2024-01-07T04:18:06;6.53;;;2.78;;
39050;SDS011;24805;55.852;37.644;2024-01-07T04:23:09;5.25;;;2.75;;
39050;SDS011;24805;55.852;37.644;2024-01-07T04:28:11;4.55;;;1.95;;
39050;SDS011;24805;55.852;37.644;2024-01-07T04:33:14;8.55;;;3.42;;
39050;SDS011;24805;55.852;37.644;2024-01-07T04:38:16;2.80;;;1.00;;
39050;SDS011;24805;55.852;37.644;2024-01-07T04:43:18;5.25;;;2.80;;
39050;SDS011;24805;55.852;37.644;2024-01-07T04:48:21;4.75;;;2.65;;
39050;SDS011;24805;55.852;37.644;2024-01-07T04:53:23;3.60;;;2.30;;
39050;SDS011;24805;55.852;37.644;2024-01-07T04:58:26;5.95;;;2.40;;
39050;SDS011;24805;55.852;37.644;2024-01-07T05:03:28;12.27;;;2.83;;
39050;SDS011;24805;55.852;37.644;2024-01-07T05:08:30;2.25;;;1.35;;
39050;SDS011;24805;55.852;37.644;2024-01-07T05:13:33;4.68;;;1.58;;
39050;SDS011;24805;55.852;37.644;2024-01-07T05:18:35;5.35;;;1.63;;
39050;SDS011;24805;55.852;37.644;2024-01-07T05:23:39;5.85;;;2.95;;
39050;SDS011;24805;55.852;37.644;2024-01-07T05:28:41;5.45;;;1.95;;
39050;SDS011;24805;55.852;37.644;2024-01-07T05:33:44;5.82;;;2.65;;
39050;SDS011;24805;55.852;37.644;2024-01-07T05:38:47;4.15;;;3.03;;
39050;SDS011;24805;55.852;37.644;2024-01-07T05:43:49;3.38;;;1.40;;
39050;SDS011;24805;55.852;37.644;2024-01-07T05:48:52;5.15;;;2.20;;
39050;SDS011;24805;55.852;37.644;2024-01-07T05:53:55;4.68;;;2.35;;
39050;SDS011;24805;55.852;37.644;2024-01-07T05:58:57;7.97;;;2.30;;
39050;SDS011;24805;55.852;37.644;2024-01-07T06:04:00;4.18;;;2.80;;
39050;SDS011;24805;55.852;37.644;2024-01-07T06:09:02;5.75;;;2.00;;
39050;SDS011;24805;55.852;37.644;2024-01-07T06:14:05;6.60;;;2.08;;
39050;SDS011;24805;55.852;37.644;2024-01-07T06:19:07;2.33;;;0.77;;
39050;SDS011;24805;55.852;37.644;2024-01-07T06:24:10;6.47;;;3.03;;
39050;SDS011;24805;55.852;37.644;2024-01-07T06:29:13;6.00;;;1.65;;
39050;SDS011;24805;55.852;37.644;2024-01-07T06:34:15;3.72;;;1.45;;
39050;SDS011;24805;55.852;37.644;2024-01-07T06:39:18;6.70;;;2.72;;
39050;SDS011;24805;55.852;37.644;2024-01-07T06:44:20;3.42;;;1.40;;
39050;SDS011;24805;55.852;37.644;2024-01-07T06:49:23;9.07;;;2.83;;
39050;SDS011;24805;55.852;37.644;2024-01-07T06:54:25;7.82;;;2.40;;
39050;SDS011;24805;55.852;37.644;2024-01-07T06:59:27;9.73;;;2.22;;
39050;SDS011;24805;55.852;37.644;2024-01-07T07:04:30;6.72;;;2.80;;
39050;SDS011;24805;55.852;37.644;2024-01-07T07:09:32;5.78;;;2.38;;
39050;SDS011;24805;55.852;37.644;2024-01-07T07:14:36;11.90;;;3.13;;
39050;SDS011;24805;55.852;37.644;2024-01-07T07:19:38;11.95;;;3.67;;
39050;SDS011;24805;55.852;37.644;2024-01-07T07:24:45;11.82;;;3.30;;
39050;SDS011;24805;55.852;37.644;2024-01-07T07:29:48;9.00;;;3.65;;
39050;SDS011;24805;55.852;37.644;2024-01-07T07:34:50;10.35;;;2.67;;
39050;SDS011;24805;55.852;37.644;2024-01-07T07:39:52;10.27;;;3.70;;
39050;SDS011;24805;55.852;37.644;2024-01-07T07:44:55;5.50;;;2.65;;
39050;SDS011;24805;55.852;37.644;2024-01-07T07:49:57;7.85;;;3.65;;
39050;SDS011;24805;55.852;37.644;2024-01-07T07:55:00;9.23;;;3.60;;
39050;SDS011;24805;55.852;37.644;2024-01-07T08:00:07;9.48;;;4.05;;
39050;SDS011;24805;55.852;37.644;2024-01-07T08:05:13;9.10;;;4.28;;
39050;SDS011;24805;55.852;37.644;2024-01-07T08:10:15;9.68;;;5.00;;
39050;SDS011;24805;55.852;37.644;2024-01-07T08:15:19;9.32;;;4.35;;
39050;SDS011;24805;55.852;37.644;2024-01-07T08:20:21;8.98;;;5.00;;
39050;SDS011;24805;55.852;37.644;2024-01-07T08:25:23;11.18;;;5.00;;
39050;SDS011;24805;55.852;37.644;2024-01-07T08:30:26;10.20;;;5.20;;
39050;SDS011;24805;55.852;37.644;2024-01-07T08:35:28;11.10;;;4.30;;
39050;SDS011;24805;55.852;37.644;2024-01-07T08:40:31;9.27;;;4.80;;
39050;SDS011;24805;55.852;37.644;2024-01-07T08:45:33;10.45;;;4.18;;
39050;SDS011;24805;55.852;37.644;2024-01-07T08:50:35;11.30;;;4.88;;
39050;SDS011;24805;55.852;37.644;2024-01-07T08:55:38;11.75;;;5.55;;
39050;SDS011;24805;55.852;37.644;2024-01-07T09:00:40;13.20;;;5.97;;
39050;SDS011;24805;55.852;37.644;2024-01-07T09:05:42;17.00;;;6.35;;
39050;SDS011;24805;55.852;37.644;2024-01-07T09:10:45;13.43;;;5.63;;
39050;SDS011;24805;55.852;37.644;2024-01-07T09:15:47;12.73;;;5.35;;
39050;SDS011;24805;55.852;37.644;2024-01-07T09:20:50;16.75;;;6.20;;
39050;SDS011;24805;55.852;37.644;2024-01-07T09:25:52;17.42;;;7.65;;
39050;SDS011;24805;55.852;37.644;2024-01-07T09:30:54;18.00;;;7.93;;
39050;SDS011;24805;55.852;37.644;2024-01-07T09:35:56;17.58;;;7.68;;
39050;SDS011;24805;55.852;37.644;2024-01-07T09:41:11;20.13;;;9.00;;
39050;SDS011;24805;55.852;37.644;2024-01-07T09:46:13;17.33;;;9.02;;
39050;SDS011;24805;55.852;37.644;2024-01-07T09:51:16;17.75;;;9.30;;
39050;SDS011;24805;55.852;37.644;2024-01-07T09:56:24;16.60;;;9.38;;
39050;SDS011;24805;55.852;37.644;2024-01-07T10:01:28;17.88;;;9.70;;
39050;SDS011;24805;55.852;37.644;2024-01-07T10:06:31;17.85;;;9.88;;
39050;SDS011;24805;55.852;37.644;2024-01-07T10:11:33;18.73;;;11.32;;
39050;SDS011;24805;55.852;37.644;2024-01-07T10:16:36;20.27;;;11.20;;
39050;SDS011;24805;55.852;37.644;2024-01-07T10:21:38;25.42;;;15.32;;
39050;SDS011;24805;55.852;37.644;2024-01-07T10:26:41;15.40;;;8.88;;
39050;SDS011;24805;55.852;37.644;2024-01-07T10:31:43;14.82;;;7.88;;
39050;SDS011;24805;55.852;37.644;2024-01-07T10:36:46;12.40;;;7.03;;
39050;SDS011;24805;55.852;37.644;2024-01-07T10:41:48;11.77;;;5.82;;
39050;SDS011;24805;55.852;37.644;2024-01-07T10:46:54;11.00;;;6.35;;
39050;SDS011;24805;55.852;37.644;2024-01-07T10:52:06;9.38;;;5.72;;
39050;SDS011;24805;55.852;37.644;2024-01-07T10:57:17;9.75;;;6.28;;
39050;SDS011;24805;55.852;37.644;2024-01-07T11:02:28;10.90;;;5.97;;
39050;SDS011;24805;55.852;37.644;2024-01-07T11:07:35;11.52;;;5.68;;
39050;SDS011;24805;55.852;37.644;2024-01-07T11:12:42;8.17;;;5.70;;
39050;SDS011;24805;55.852;37.644;2024-01-07T11:17:44;9.25;;;5.15;;
39050;SDS011;24805;55.852;37.644;2024-01-07T11:22:48;10.55;;;5.32;;
39050;SDS011;24805;55.852;37.644;2024-01-07T11:27:51;9.13;;;5.53;;
39050;SDS011;24805;55.852;37.644;2024-01-07T11:32:59;7.10;;;4.30;;
39050;SDS011;24805;55.852;37.644;2024-01-07T11:38:02;8.07;;;4.60;;
39050;SDS011;24805;55.852;37.644;2024-01-07T11:43:05;7.95;;;4.18;;
39050;SDS011;24805;55.852;37.644;2024-01-07T11:48:07;8.90;;;4.55;;
39050;SDS011;24805;55.852;37.644;2024-01-07T11:53:11;9.15;;;4.45;;
39050;SDS011;24805;55.852;37.644;2024-01-07T11:58:14;7.63;;;4.50;;
39050;SDS011;24805;55.852;37.644;2024-01-07T12:03:17;9.10;;;4.95;;
39050;SDS011;24805;55.852;37.644;2024-01-07T12:08:20;11.38;;;4.97;;
39050;SDS011;24805;55.852;37.644;2024-01-07T12:13:22;8.63;;;4.43;;
39050;SDS011;24805;55.852;37.644;2024-01-07T12:18:26;9.50;;;4.85;;
39050;SDS011;24805;55.852;37.644;2024-01-07T12:23:29;10.82;;;4.55;;
39050;SDS011;24805;55.852;37.644;2024-01-07T12:28:38;7.05;;;3.97;;
39050;SDS011;24805;55.852;37.644;2024-01-07T12:33:41;9.60;;;4.40;;
39050;SDS011;24805;55.852;37.644;2024-01-07T12:38:43;9.40;;;4.28;;
39050;SDS011;24805;55.852;37.644;2024-01-07T12:43:46;8.82;;;3.97;;
39050;SDS011;24805;55.852;37.644;2024-01-07T12:48:48;8.40;;;3.55;;
39050;SDS011;24805;55.852;37.644;2024-01-07T12:53:51;9.57;;;4.30;;
39050;SDS011;24805;55.852;37.644;2024-01-07T12:58:53;7.03;;;3.25;;
39050;SDS011;24805;55.852;37.644;2024-01-07T13:03:56;7.80;;;3.40;;
39050;SDS011;24805;55.852;37.644;2024-01-07T13:08:59;5.90;;;2.60;;
39050;SDS011;24805;55.852;37.644;2024-01-07T13:14:06;7.95;;;2.63;;
39050;SDS011;24805;55.852;37.644;2024-01-07T13:19:09;7.05;;;2.90;;
39050;SDS011;24805;55.852;37.644;2024-01-07T13:24:13;3.70;;;1.55;;
39050;SDS011;24805;55.852;37.644;2024-01-07T13:29:15;12.02;;;3.08;;
39050;SDS011;24805;55.852;37.644;2024-01-07T13:34:17;5.40;;;2.70;;
39050;SDS011;24805;55.852;37.644;2024-01-07T13:39:20;5.35;;;2.63;;
39050;SDS011;24805;55.852;37.644;2024-01-07T13:44:23;8.48;;;2.72;;
39050;SDS011;24805;55.852;37.644;2024-01-07T13:49:25;10.73;;;2.70;;
39050;SDS011;24805;55.852;37.644;2024-01-07T13:54:27;9.82;;;2.08;;
39050;SDS011;24805;55.852;37.644;2024-01-07T13:59:30;11.73;;;3.25;;
39050;SDS011;24805;55.852;37.644;2024-01-07T14:04:32;9.95;;;3.13;;
39050;SDS011;24805;55.852;37.644;2024-01-07T14:09:35;6.88;;;2.35;;
39050;SDS011;24805;55.852;37.644;2024-01-07T14:14:37;11.05;;;3.97;;
39050;SDS011;24805;55.852;37.644;2024-01-07T14:19:39;7.10;;;3.25;;
39050;SDS011;24805;55.852;37.644;2024-01-07T14:24:42;12.07;;;3.22;;
39050;SDS011;24805;55.852;37.644;2024-01-07T14:29:44;5.20;;;2.70;;
39050;SDS011;24805;55.852;37.644;2024-01-07T14:34:47;8.45;;;2.83;;
39050;SDS011;24805;55.852;37.644;2024-01-07T14:39:52;8.98;;;3.70;;
39050;SDS011;24805;55.852;37.644;2024-01-07T14:44:54;9.27;;;3.97;;
39050;SDS011;24805;55.852;37.644;2024-01-07T14:49:58;6.82;;;3.35;;
39050;SDS011;24805;55.852;37.644;2024-01-07T14:55:01;11.23;;;3.67;;
39050;SDS011;24805;55.852;37.644;2024-01-07T15:00:04;7.00;;;2.15;;
39050;SDS011;24805;55.852;37.644;2024-01-07T15:05:08;11.65;;;2.70;;
39050;SDS011;24805;55.852;37.644;2024-01-07T15:10:10;7.18;;;2.78;;
39050;SDS011;24805;55.852;37.644;2024-01-07T15:15:14;8.63;;;3.45;;
39050;SDS011;24805;55.852;37.644;2024-01-07T15:20:16;8.00;;;2.58;;
39050;SDS011;24805;55.852;37.644;2024-01-07T15:25:19;7.03;;;2.72;;
39050;SDS011;24805;55.852;37.644;2024-01-07T15:30:22;7.60;;;3.78;;
39050;SDS011;24805;55.852;37.644;2024-01-07T15:35:24;11.10;;;3.65;;
39050;SDS011;24805;55.852;37.644;2024-01-07T15:40:27;9.00;;;3.38;;
39050;SDS011;24805;55.852;37.644;2024-01-07T15:45:29;9.60;;;3.95;;
39050;SDS011;24805;55.852;37.644;2024-01-07T15:50:32;5.43;;;2.45;;
39050;SDS011;24805;55.852;37.644;2024-01-07T15:55:37;4.18;;;2.28;;
39050;SDS011;24805;55.852;37.644;2024-01-07T16:00:39;6.25;;;2.30;;
39050;SDS011;24805;55.852;37.644;2024-01-07T16:05:42;12.05;;;2.67;;
39050;SDS011;24805;55.852;37.644;2024-01-07T16:10:44;7.53;;;2.85;;
39050;SDS011;24805;55.852;37.644;2024-01-07T16:15:47;6.93;;;2.72;;
39050;SDS011;24805;55.852;37.644;2024-01-07T16:20:49;9.38;;;2.78;;
39050;SDS011;24805;55.852;37.644;2024-01-07T16:25:52;11.98;;;3.13;;
39050;SDS011;24805;55.852;37.644;2024-01-07T16:30:54;8.15;;;3.33;;
39050;SDS011;24805;55.852;37.644;2024-01-07T16:35:57;11.40;;;5.40;;
39050;SDS011;24805;55.852;37.644;2024-01-07T16:40:59;5.50;;;2.33;;
39050;SDS011;24805;55.852;37.644;2024-01-07T16:46:02;8.63;;;3.40;;
39050;SDS011;24805;55.852;37.644;2024-01-07T16:51:05;9.73;;;2.72;;
39050;SDS011;24805;55.852;37.644;2024-01-07T16:56:08;9.32;;;3.80;;
39050;SDS011;24805;55.852;37.644;2024-01-07T17:01:10;11.32;;;3.33;;
39050;SDS011;24805;55.852;37.644;2024-01-07T17:06:12;15.35;;;4.82;;
39050;SDS011;24805;55.852;37.644;2024-01-07T17:11:15;7.95;;;2.65;;
39050;SDS011;24805;55.852;37.644;2024-01-07T17:16:17;10.07;;;4.35;;
39050;SDS011;24805;55.852;37.644;2024-01-07T17:21:22;3.97;;;2.63;;
39050;SDS011;24805;55.852;37.644;2024-01-07T17:26:24;9.75;;;3.83;;
39050;SDS011;24805;55.852;37.644;2024-01-07T17:31:27;7.68;;;4.40;;
39050;SDS011;24805;55.852;37.644;2024-01-07T17:36:29;10.20;;;3.95;;
39050;SDS011;24805;55.852;37.644;2024-01-07T17:41:36;9.32;;;4.78;;
39050;SDS011;24805;55.852;37.644;2024-01-07T17:46:39;6.45;;;2.83;;
39050;SDS011;24805;55.852;37.644;2024-01-07T17:51:42;13.77;;;3.72;;
39050;SDS011;24805;55.852;37.644;2024-01-07T17:56:46;13.38;;;4.53;;
39050;SDS011;24805;55.852;37.644;2024-01-07T18:01:49;7.43;;;4.00;;
39050;SDS011;24805;55.852;37.644;2024-01-07T18:06:52;6.10;;;2.92;;
39050;SDS011;24805;55.852;37.644;2024-01-07T18:11:55;8.50;;;3.88;;
39050;SDS011;24805;55.852;37.644;2024-01-07T18:16:57;8.90;;;2.88;;
39050;SDS011;24805;55.852;37.644;2024-01-07T18:21:59;11.00;;;5.45;;
39050;SDS011;24805;55.852;37.644;2024-01-07T18:27:02;12.45;;;6.45;;
39050;SDS011;24805;55.852;37.644;2024-01-07T18:32:04;9.77;;;3.50;;
39050;SDS011;24805;55.852;37.644;2024-01-07T18:37:08;9.43;;;4.35;;
39050;SDS011;24805;55.852;37.644;2024-01-07T18:42:11;8.93;;;4.38;;
39050;SDS011;24805;55.852;37.644;2024-01-07T18:47:14;3.45;;;1.98;;
39050;SDS011;24805;55.852;37.644;2024-01-07T18:52:17;8.52;;;4.20;;
39050;SDS011;24805;55.852;37.644;2024-01-07T18:57:19;13.18;;;4.88;;
39050;SDS011;24805;55.852;37.644;2024-01-07T19:02:22;13.27;;;5.32;;
39050;SDS011;24805;55.852;37.644;2024-01-07T19:07:24;11.93;;;5.20;;
39050;SDS011;24805;55.852;37.644;2024-01-07T19:12:27;11.02;;;4.90;;
39050;SDS011;24805;55.852;37.644;2024-01-07T19:17:29;7.50;;;3.33;;
39050;SDS011;24805;55.852;37.644;2024-01-07T19:22:32;11.18;;;5.82;;
39050;SDS011;24805;55.852;37.644;2024-01-07T19:27:34;15.65;;;4.97;;
39050;SDS011;24805;55.852;37.644;2024-01-07T19:32:39;14.65;;;3.17;;
39050;SDS011;24805;55.852;37.644;2024-01-07T19:37:43;5.82;;;2.67;;
39050;SDS011;24805;55.852;37.644;2024-01-07T19:42:45;16.02;;;4.03;;
39050;SDS011;24805;55.852;37.644;2024-01-07T19:47:47;6.43;;;3.05;;
39050;SDS011;24805;55.852;37.644;2024-01-07T19:52:50;9.45;;;4.05;;
39050;SDS011;24805;55.852;37.644;2024-01-07T19:57:53;14.75;;;4.55;;
39050;SDS011;24805;55.852;37.644;2024-01-07T20:02:55;10.48;;;2.92;;
39050;SDS011;24805;55.852;37.644;2024-01-07T20:07:58;10.25;;;4.60;;
39050;SDS011;24805;55.852;37.644;2024-01-07T20:13:00;13.18;;;4.30;;
39050;SDS011;24805;55.852;37.644;2024-01-07T20:18:03;11.27;;;3.85;;
39050;SDS011;24805;55.852;37.644;2024-01-07T20:23:06;13.63;;;3.83;;
39050;SDS011;24805;55.852;37.644;2024-01-07T20:28:08;12.68;;;4.43;;
39050;SDS011;24805;55.852;37.644;2024-01-07T20:33:11;7.40;;;3.47;;
39050;SDS011;24805;55.852;37.644;2024-01-07T20:38:16;9.70;;;4.68;;
39050;SDS011;24805;55.852;37.644;2024-01-07T20:43:18;11.73;;;4.55;;
39050;SDS011;24805;55.852;37.644;2024-01-07T20:48:21;9.23;;;3.10;;
39050;SDS011;24805;55.852;37.644;2024-01-07T20:53:23;10.93;;;4.22;;
39050;SDS011;24805;55.852;37.644;2024-01-07T20:58:26;15.55;;;4.75;;
39050;SDS011;24805;55.852;37.644;2024-01-07T21:03:29;14.77;;;3.65;;
39050;SDS011;24805;55.852;37.644;2024-01-07T21:08:32;9.27;;;2.97;;
39050;SDS011;24805;55.852;37.644;2024-01-07T21:13:35;14.27;;;5.07;;
39050;SDS011;24805;55.852;37.644;2024-01-07T21:18:37;11.68;;;5.40;;
39050;SDS011;24805;55.852;37.644;2024-01-07T21:23:40;8.95;;;4.20;;
39050;SDS011;24805;55.852;37.644;2024-01-07T21:28:42;9.38;;;2.80;;
39050;SDS011;24805;55.852;37.644;2024-01-07T21:33:44;10.68;;;4.40;;
39050;SDS011;24805;55.852;37.644;2024-01-07T21:38:47;7.60;;;3.38;;
39050;SDS011;24805;55.852;37.644;2024-01-07T21:43:49;10.57;;;3.97;;
39050;SDS011;24805;55.852;37.644;2024-01-07T21:48:52;8.13;;;3.45;;
39050;SDS011;24805;55.852;37.644;2024-01-07T21:53:58;4.72;;;1.70;;
39050;SDS011;24805;55.852;37.644;2024-01-07T21:59:02;12.05;;;3.22;;
39050;SDS011;24805;55.852;37.644;2024-01-07T22:04:05;9.68;;;3.25;;
39050;SDS011;24805;55.852;37.644;2024-01-07T22:09:07;12.15;;;3.50;;
39050;SDS011;24805;55.852;37.644;2024-01-07T22:14:09;9.43;;;3.13;;
39050;SDS011;24805;55.852;37.644;2024-01-07T22:19:12;7.40;;;2.28;;
39050;SDS011;24805;55.852;37.644;2024-01-07T22:24:14;11.70;;;4.38;;
39050;SDS011;24805;55.852;37.644;2024-01-07T22:29:17;9.95;;;4.43;;
39050;SDS011;24805;55.852;37.644;2024-01-07T22:34:22;9.50;;;3.67;;
39050;SDS011;24805;55.852;37.644;2024-01-07T22:39:25;8.25;;;3.42;;
39050;SDS011;24805;55.852;37.644;2024-01-07T22:44:29;6.25;;;3.58;;
39050;SDS011;24805;55.852;37.644;2024-01-07T22:49:32;7.35;;;3.70;;
39050;SDS011;24805;55.852;37.644;2024-01-07T22:54:37;13.65;;;3.15;;
39050;SDS011;24805;55.852;37.644;2024-01-07T22:59:39;8.55;;;3.97;;
39050;SDS011;24805;55.852;37.644;2024-01-07T23:04:42;14.48;;;4.70;;
39050;SDS011;24805;55.852;37.644;2024-01-07T23:09:44;13.82;;;4.57;;
39050;SDS011;24805;55.852;37.644;2024-01-07T23:14:47;12.80;;;4.50;;
39050;SDS011;24805;55.852;37.644;2024-01-07T23:19:49;8.82;;;3.25;;
39050;SDS011;24805;55.852;37.644;2024-01-07T23:24:52;10.32;;;3.65;;
39050;SDS011;24805;55.852;37.644;2024-01-07T23:29:59;13.25;;;5.82;;
39050;SDS011;24805;55.852;37.644;2024-01-07T23:35:04;7.85;;;4.00;;
39050;SDS011;24805;55.852;37.644;2024-01-07T23:40:07;9.95;;;4.40;;
39050;SDS011;24805;55.852;37.644;2024-01-07T23:45:10;12.50;;;5.40;;
39050;SDS011;24805;55.852;37.644;2024-01-07T23:50:13;13.05;;;4.10;;
39050;SDS011;24805;55.852;37.644;2024-01-07T23:55:15;15.88;;;4.47;;
